createdAt,value
2022-12-08T00:02:05.845Z,4.10
2022-12-08T00:04:54.459Z,4.10
2022-12-08T00:07:41.653Z,4.20
2022-12-08T00:10:46.543Z,4.10
2022-12-08T00:12:59.236Z,4.20
2022-12-08T00:15:27.659Z,4.20
2022-12-08T00:17:56.082Z,4.20
2022-12-08T00:20:24.597Z,4.20
2022-12-08T00:22:54.394Z,4.20
2022-12-08T00:25:22.823Z,4.20
2022-12-08T00:27:51.266Z,4.20
2022-12-08T00:30:19.865Z,4.20
2022-12-08T00:32:48.299Z,4.30
2022-12-08T00:35:16.855Z,4.30
2022-12-08T00:37:45.275Z,4.30
2022-12-08T00:40:15.249Z,4.30
2022-12-08T00:42:43.702Z,4.30
2022-12-08T00:45:12.962Z,4.30
2022-12-08T00:47:41.509Z,4.30
2022-12-08T00:50:10.967Z,4.30
2022-12-08T00:52:39.433Z,4.30
2022-12-08T00:55:08.503Z,4.30
2022-12-08T00:57:38.296Z,4.30
2022-12-08T01:00:08.148Z,4.30
2022-12-08T01:02:36.581Z,4.30
2022-12-08T01:05:05.907Z,4.20
2022-12-08T01:07:34.614Z,4.20
2022-12-08T01:10:05.344Z,4.20
2022-12-08T01:12:33.967Z,4.10
2022-12-08T01:15:03.894Z,4.10
2022-12-08T01:17:32.362Z,4.10
2022-12-08T01:20:02.303Z,4.10
2022-12-08T01:22:31.025Z,4.10
2022-12-08T01:24:59.466Z,4.00
2022-12-08T01:27:27.870Z,4.10
2022-12-08T01:29:56.340Z,4.00
2022-12-08T01:32:26.234Z,4.00
2022-12-08T01:34:54.695Z,4.10
2022-12-08T01:37:23.134Z,4.10
2022-12-08T01:39:51.529Z,4.10
2022-12-08T01:42:22.008Z,4.10
2022-12-08T01:45:00.661Z,4.10
2022-12-08T01:47:37.100Z,4.10
2022-12-08T01:50:09.442Z,4.10
2022-12-08T01:52:41.670Z,4.10
2022-12-08T01:55:15.592Z,4.10
2022-12-08T01:57:48.118Z,4.10
2022-12-08T02:00:19.371Z,4.10
2022-12-08T02:02:54.285Z,4.10
2022-12-08T02:05:26.577Z,4.10
2022-12-08T02:07:56.390Z,4.10
2022-12-08T02:10:29.279Z,4.10
2022-12-08T02:12:59.790Z,4.10
2022-12-08T02:15:37.725Z,4.10
2022-12-08T02:18:22.432Z,4.10
2022-12-08T02:20:57.211Z,4.10
2022-12-08T02:23:35.692Z,4.10
2022-12-08T02:26:39.321Z,4.10
2022-12-08T02:29:40.718Z,4.10
2022-12-08T02:32:24.876Z,4.10
2022-12-08T02:35:01.819Z,4.00
2022-12-08T02:37:33.646Z,4.10
2022-12-08T02:40:08.281Z,4.10
2022-12-08T02:42:41.181Z,4.10
2022-12-08T02:45:14.930Z,4.10
2022-12-08T02:47:44.444Z,4.10
2022-12-08T02:50:15.750Z,4.10
2022-12-08T02:52:45.825Z,4.10
2022-12-08T02:55:26.641Z,4.20
2022-12-08T02:58:18.564Z,4.20
2022-12-08T03:01:01.517Z,4.20
2022-12-08T03:03:36.569Z,4.20
2022-12-08T03:06:14.474Z,4.20
2022-12-08T03:08:52.462Z,4.20
2022-12-08T03:11:25.995Z,4.20
2022-12-08T03:13:58.431Z,4.20
2022-12-08T03:16:28.422Z,4.20
2022-12-08T03:19:02.639Z,4.20
2022-12-08T03:21:34.805Z,4.20
2022-12-08T03:24:05.865Z,4.20
2022-12-08T03:26:40.903Z,4.20
2022-12-08T03:29:09.458Z,4.20
2022-12-08T03:31:42.757Z,4.30
2022-12-08T03:34:12.944Z,4.20
2022-12-08T03:36:44.232Z,4.20
2022-12-08T03:39:12.707Z,4.30
2022-12-08T03:41:41.128Z,4.30
2022-12-08T03:44:09.534Z,4.30
2022-12-08T03:46:37.937Z,4.30
2022-12-08T03:49:06.391Z,4.30
2022-12-08T03:51:34.817Z,4.30
2022-12-08T03:54:04.907Z,4.20
2022-12-08T03:56:35.645Z,4.20
2022-12-08T03:59:05.262Z,4.10
2022-12-08T04:01:33.913Z,4.10
2022-12-08T04:04:02.379Z,4.00
2022-12-08T04:06:30.822Z,4.00
2022-12-08T04:08:59.371Z,4.00
2022-12-08T04:11:29.191Z,4.00
2022-12-08T04:13:57.596Z,4.00
2022-12-08T04:16:27.947Z,3.90
2022-12-08T04:18:56.570Z,3.90
2022-12-08T04:21:24.968Z,3.90
2022-12-08T04:23:57.613Z,3.90
2022-12-08T04:26:30.861Z,3.90
2022-12-08T04:28:59.314Z,3.90
2022-12-08T04:31:27.845Z,4.00
2022-12-08T04:33:56.396Z,4.00
2022-12-08T04:36:24.776Z,4.00
2022-12-08T04:38:53.190Z,4.00
2022-12-08T04:41:21.632Z,4.00
2022-12-08T04:43:51.509Z,4.10
2022-12-08T04:46:20.025Z,4.10
2022-12-08T04:48:48.715Z,4.10
2022-12-08T04:51:18.666Z,4.10
2022-12-08T04:53:48.055Z,4.10
2022-12-08T04:56:17.994Z,4.10
2022-12-08T04:58:46.675Z,4.20
2022-12-08T05:01:16.870Z,4.10
2022-12-08T05:03:45.306Z,4.10
2022-12-08T05:06:15.157Z,4.10
2022-12-08T05:08:44.294Z,4.20
2022-12-08T05:11:14.228Z,4.20
2022-12-08T05:13:42.784Z,4.10
2022-12-08T05:16:12.907Z,4.10
2022-12-08T05:18:43.698Z,4.10
2022-12-08T05:21:12.209Z,4.10
2022-12-08T05:23:40.794Z,4.10
2022-12-08T05:26:09.443Z,4.10
2022-12-08T05:28:42.726Z,4.10
2022-12-08T05:31:12.675Z,4.00
2022-12-08T05:33:43.735Z,4.00
2022-12-08T05:36:14.328Z,4.10
2022-12-08T05:38:43.394Z,4.10
2022-12-08T05:41:15.110Z,4.10
2022-12-08T05:43:43.605Z,4.10
2022-12-08T05:46:12.769Z,4.10
2022-12-08T05:48:42.609Z,4.10
2022-12-08T05:51:17.945Z,4.10
2022-12-08T05:53:46.523Z,4.10
2022-12-08T05:56:15.219Z,4.10
2022-12-08T05:58:43.660Z,4.10
2022-12-08T06:01:23.740Z,4.10
2022-12-08T06:03:53.628Z,4.10
2022-12-08T06:06:22.629Z,4.10
2022-12-08T06:08:51.392Z,4.00
2022-12-08T06:11:20.725Z,4.10
2022-12-08T06:13:49.432Z,4.00
2022-12-08T06:16:18.783Z,4.00
2022-12-08T06:18:47.691Z,4.00
2022-12-08T06:21:17.959Z,4.00
2022-12-08T06:23:49.034Z,3.90
2022-12-08T06:26:17.949Z,3.90
2022-12-08T06:28:46.491Z,3.90
2022-12-08T06:31:17.245Z,3.90
2022-12-08T06:33:46.336Z,3.90
2022-12-08T06:36:18.063Z,3.90
2022-12-08T06:38:46.829Z,3.90
2022-12-08T06:41:15.708Z,3.90
2022-12-08T06:43:44.506Z,3.80
2022-12-08T06:46:15.622Z,3.80
2022-12-08T06:48:44.254Z,3.70
2022-12-08T06:51:14.436Z,3.80
2022-12-08T06:53:45.008Z,3.70
2022-12-08T06:56:15.755Z,3.70
2022-12-08T06:58:48.943Z,3.60
2022-12-08T07:01:20.808Z,3.60
2022-12-08T07:03:49.391Z,3.60
2022-12-08T07:06:21.525Z,3.60
2022-12-08T07:08:51.734Z,3.60
2022-12-08T07:11:22.408Z,3.50
2022-12-08T07:13:51.731Z,3.50
2022-12-08T07:16:20.686Z,3.50
2022-12-08T07:18:49.207Z,3.40
2022-12-08T07:21:18.324Z,3.40
2022-12-08T07:23:52.745Z,3.40
2022-12-08T07:26:27.316Z,3.40
2022-12-08T07:28:56.003Z,3.40
2022-12-08T07:31:25.887Z,3.40
2022-12-08T07:33:55.790Z,3.40
2022-12-08T07:36:25.527Z,3.30
2022-12-08T07:38:54.239Z,3.30
2022-12-08T07:41:24.239Z,3.30
2022-12-08T07:43:54.501Z,3.30
2022-12-08T07:46:24.527Z,3.20
2022-12-08T07:48:53.566Z,3.20
2022-12-08T07:51:22.408Z,3.20
2022-12-08T07:53:54.121Z,3.20
2022-12-08T07:56:24.188Z,3.20
2022-12-08T07:58:54.058Z,3.20
2022-12-08T08:01:25.168Z,3.20
2022-12-08T08:03:54.940Z,3.10
2022-12-08T08:06:24.173Z,3.10
2022-12-08T08:08:52.674Z,3.10
2022-12-08T08:11:21.876Z,3.10
2022-12-08T08:13:50.616Z,3.10
2022-12-08T08:16:21.431Z,3.10
2022-12-08T08:18:51.334Z,3.10
2022-12-08T08:24:10.138Z,3.10
2022-12-08T08:26:38.997Z,3.10
2022-12-08T08:29:07.429Z,3.10
2022-12-08T08:31:37.251Z,3.20
2022-12-08T08:34:06.361Z,3.20
2022-12-08T08:36:35.173Z,3.20
2022-12-08T08:39:04.286Z,3.10
2022-12-08T08:41:32.729Z,3.20
2022-12-08T08:44:01.132Z,3.20
2022-12-08T08:46:29.581Z,3.20
2022-12-08T08:48:59.575Z,3.20
2022-12-08T08:51:28.582Z,3.20
2022-12-08T08:53:56.998Z,3.30
2022-12-08T08:56:25.967Z,3.30
2022-12-08T08:58:55.046Z,3.30
2022-12-08T09:01:27.418Z,3.30
2022-12-08T09:03:56.539Z,3.30
2022-12-08T09:06:28.007Z,3.30
2022-12-08T09:08:56.603Z,3.30
2022-12-08T09:11:25.029Z,3.40
2022-12-08T09:13:56.055Z,3.30
2022-12-08T09:16:24.978Z,3.60
2022-12-08T09:18:53.638Z,3.40
2022-12-08T09:21:27.191Z,3.40
2022-12-08T09:23:58.297Z,3.40
2022-12-08T09:26:28.074Z,3.40
2022-12-08T09:28:58.120Z,3.50
2022-12-08T09:31:26.882Z,3.50
2022-12-08T09:33:55.378Z,3.50
2022-12-08T09:36:24.094Z,3.50
2022-12-08T09:38:54.677Z,3.50
2022-12-08T09:41:36.857Z,3.60
2022-12-08T09:44:33.094Z,3.60
2022-12-08T09:47:04.633Z,3.60
2022-12-08T09:49:40.828Z,3.60
2022-12-08T09:52:19.810Z,3.70
2022-12-08T09:54:49.627Z,3.70
2022-12-08T09:57:21.611Z,3.70
2022-12-08T09:59:54.750Z,3.80
2022-12-08T10:02:25.645Z,3.70
2022-12-08T10:04:56.897Z,3.70
2022-12-08T10:07:34.700Z,3.80
2022-12-08T10:10:11.708Z,3.80
2022-12-08T10:12:47.239Z,3.80
2022-12-08T10:15:35.041Z,3.80
2022-12-08T10:18:08.958Z,3.80
2022-12-08T10:20:39.447Z,3.80
2022-12-08T10:23:15.852Z,3.80
2022-12-08T10:25:48.187Z,3.90
2022-12-08T10:28:16.947Z,3.90
2022-12-08T10:30:45.533Z,3.90
2022-12-08T10:33:16.718Z,4.00
2022-12-08T10:35:47.455Z,4.00
2022-12-08T10:38:27.122Z,4.10
2022-12-08T10:41:04.207Z,4.00
2022-12-08T10:43:34.156Z,4.20
2022-12-08T10:46:11.744Z,4.20
2022-12-08T10:48:49.428Z,4.30
2022-12-08T10:51:26.413Z,4.30
2022-12-08T10:53:54.914Z,4.30
2022-12-08T10:56:29.452Z,4.40
2022-12-08T10:59:22.199Z,4.40
2022-12-08T11:01:52.438Z,4.40
2022-12-08T11:04:22.839Z,4.40
2022-12-08T11:06:52.826Z,4.30
2022-12-08T11:09:32.167Z,4.30
2022-12-08T11:12:08.587Z,4.20
2022-12-08T11:14:49.156Z,4.20
2022-12-08T11:17:24.776Z,4.10
2022-12-08T11:20:00.349Z,4.10
2022-12-08T11:22:33.795Z,4.00
2022-12-08T11:25:11.159Z,4.00
2022-12-08T11:27:44.298Z,4.00
2022-12-08T11:30:18.069Z,4.00
2022-12-08T11:32:48.829Z,3.90
2022-12-08T11:35:25.327Z,3.90
2022-12-08T11:38:03.307Z,3.90
2022-12-08T11:40:39.286Z,3.80
2022-12-08T11:43:17.439Z,3.80
2022-12-08T11:45:45.911Z,3.70
2022-12-08T11:48:19.067Z,3.70
2022-12-08T11:50:52.940Z,3.70
2022-12-08T11:53:28.777Z,3.70
2022-12-08T11:56:01.863Z,3.70
2022-12-08T11:58:40.701Z,3.80
2022-12-08T12:01:19.292Z,3.70
2022-12-08T12:03:54.919Z,3.80
2022-12-08T12:06:54.904Z,3.90
2022-12-08T12:09:38.848Z,3.90
2022-12-08T12:12:16.947Z,4.00
2022-12-08T12:15:20.757Z,4.00
2022-12-08T12:17:52.642Z,4.10
2022-12-08T12:20:27.802Z,4.20
2022-12-08T12:23:01.854Z,4.20
2022-12-08T12:25:30.496Z,4.20
2022-12-08T12:28:03.383Z,4.30
2022-12-08T12:30:50.960Z,4.30
2022-12-08T12:33:20.763Z,4.40
2022-12-08T12:35:50.253Z,4.40
2022-12-08T12:38:41.771Z,4.40
2022-12-08T12:41:13.616Z,4.40
2022-12-08T12:44:02.175Z,4.30
2022-12-08T12:46:54.325Z,4.20
2022-12-08T12:50:05.593Z,4.10
2022-12-08T12:52:42.263Z,4.20
2022-12-08T12:55:25.798Z,3.90
2022-12-08T12:57:56.531Z,3.80
2022-12-08T13:00:26.785Z,3.80
2022-12-08T13:02:58.656Z,3.90
2022-12-08T13:05:29.953Z,3.90
2022-12-08T13:08:01.250Z,3.90
2022-12-08T13:10:32.726Z,4.00
2022-12-08T13:13:17.405Z,4.10
2022-12-08T13:15:52.364Z,4.10
2022-12-08T13:18:25.838Z,4.20
2022-12-08T13:21:06.745Z,4.30
2022-12-08T13:23:46.633Z,4.30
2022-12-08T13:26:21.420Z,4.30
2022-12-08T13:29:19.014Z,4.40
2022-12-08T13:31:51.334Z,4.40
2022-12-08T13:34:28.547Z,4.40
2022-12-08T13:37:05.134Z,4.40
2022-12-08T13:39:42.078Z,4.40
2022-12-08T13:42:19.362Z,4.30
2022-12-08T13:48:20.539Z,4.30
2022-12-08T13:52:33.064Z,4.20
2022-12-08T13:54:35.489Z,4.20
2022-12-08T13:57:00.991Z,4.10
2022-12-08T13:59:27.981Z,4.00
2022-12-08T14:01:59.244Z,4.00
2022-12-08T14:04:47.767Z,3.90
2022-12-08T14:07:18.640Z,3.90
2022-12-08T14:09:47.592Z,3.80
2022-12-08T14:12:20.807Z,3.70
2022-12-08T14:15:03.249Z,3.70
2022-12-08T14:17:34.016Z,3.70
2022-12-08T14:20:06.446Z,3.60
2022-12-08T14:22:38.243Z,3.60
2022-12-08T14:25:15.171Z,3.60
2022-12-08T14:27:44.496Z,3.60
2022-12-08T14:30:20.758Z,3.50
2022-12-08T14:32:51.157Z,3.50
2022-12-08T14:35:24.825Z,3.40
2022-12-08T14:37:58.501Z,3.40
2022-12-08T14:40:31.559Z,3.40
2022-12-08T14:43:14.515Z,3.40
2022-12-08T14:45:55.442Z,3.30
2022-12-08T14:48:26.482Z,3.30
2022-12-08T14:51:16.099Z,3.30
2022-12-08T14:53:48.580Z,3.30
2022-12-08T14:56:21.671Z,3.30
2022-12-08T14:58:52.615Z,3.30
2022-12-08T15:01:24.427Z,3.30
2022-12-08T15:03:54.663Z,3.30
2022-12-08T15:06:23.570Z,3.40
2022-12-08T15:08:56.109Z,3.30
2022-12-08T15:11:36.531Z,3.40
2022-12-08T15:14:05.102Z,3.40
2022-12-08T15:16:40.725Z,3.40
2022-12-08T15:19:27.529Z,3.40
2022-12-08T15:21:57.726Z,3.50
2022-12-08T15:24:30.697Z,3.60
2022-12-08T15:26:59.228Z,3.50
2022-12-08T15:29:30.107Z,3.50
2022-12-08T15:32:00.979Z,3.60
2022-12-08T15:34:29.431Z,3.60
2022-12-08T15:36:57.906Z,3.60
2022-12-08T15:39:32.786Z,3.60
2022-12-08T15:42:02.308Z,3.60
2022-12-08T15:44:32.780Z,3.60
2022-12-08T15:47:01.693Z,3.70
2022-12-08T15:49:30.228Z,3.60
2022-12-08T15:52:10.808Z,3.70
2022-12-08T15:54:41.980Z,3.70
2022-12-08T15:57:35.584Z,3.70
2022-12-08T16:00:51.657Z,3.70
2022-12-08T16:09:13.583Z,3.60
2022-12-08T16:12:10.828Z,3.50
2022-12-08T16:17:29.151Z,3.40
2022-12-08T16:19:57.793Z,3.30
2022-12-08T16:25:19.381Z,3.20
2022-12-08T16:28:01.215Z,3.10
2022-12-08T16:30:31.875Z,3.10
2022-12-08T16:33:00.342Z,3.10
2022-12-08T16:35:28.856Z,3.10
2022-12-08T16:37:57.406Z,3.10
2022-12-08T16:40:25.902Z,3.00
2022-12-08T16:42:54.707Z,3.00
2022-12-08T16:45:25.525Z,2.90
2022-12-08T16:47:56.403Z,2.90
2022-12-08T16:50:26.981Z,2.90
2022-12-08T16:52:58.819Z,2.90
2022-12-08T16:55:27.408Z,2.90
2022-12-08T16:57:57.703Z,2.90
2022-12-08T17:00:27.835Z,2.90
2022-12-08T17:02:56.709Z,2.90
2022-12-08T17:05:26.708Z,2.90
2022-12-08T17:07:55.822Z,2.90
2022-12-08T17:10:26.369Z,2.80
2022-12-08T17:12:55.260Z,2.80
2022-12-08T17:15:26.251Z,2.70
2022-12-08T17:17:55.251Z,2.70
2022-12-08T17:20:25.552Z,2.60
2022-12-08T17:22:55.666Z,2.60
2022-12-08T17:25:24.339Z,2.60
2022-12-08T17:27:52.814Z,2.50
2022-12-08T17:30:21.422Z,2.50
2022-12-08T17:32:52.767Z,2.50
2022-12-08T17:35:21.591Z,2.40
2022-12-08T17:37:50.056Z,2.40
2022-12-08T17:40:18.497Z,2.40
2022-12-08T17:42:47.281Z,2.30
2022-12-08T17:45:15.993Z,2.30
2022-12-08T17:47:44.462Z,2.40
2022-12-08T17:50:14.385Z,2.20
2022-12-08T17:52:42.819Z,2.10
2022-12-08T17:55:11.574Z,2.10
2022-12-08T17:57:40.022Z,2.10
2022-12-08T18:00:11.133Z,2.10
2022-12-08T18:02:42.653Z,2.20
2022-12-08T18:05:11.161Z,2.20
2022-12-08T18:07:41.045Z,2.30
2022-12-08T18:10:10.067Z,2.30
2022-12-08T18:12:38.592Z,2.30
2022-12-08T18:15:09.155Z,2.40
2022-12-08T18:17:37.571Z,2.30
2022-12-08T18:20:07.766Z,2.40
2022-12-08T18:22:36.431Z,2.40
2022-12-08T18:25:07.781Z,2.40
2022-12-08T18:27:42.757Z,2.40
2022-12-08T18:30:16.011Z,2.50
2022-12-08T18:32:44.479Z,2.50
2022-12-08T18:35:13.385Z,2.50
2022-12-08T18:37:42.937Z,2.40
2022-12-08T18:40:14.312Z,2.40
2022-12-08T18:42:42.738Z,2.40
2022-12-08T18:45:12.070Z,2.30
2022-12-08T18:47:41.385Z,2.30
2022-12-08T18:50:12.310Z,2.30
2022-12-08T18:52:41.019Z,2.20
2022-12-08T18:55:10.929Z,2.20
2022-12-08T18:57:42.965Z,2.20
2022-12-08T19:00:13.255Z,2.30
2022-12-08T19:02:42.408Z,2.30
2022-12-08T19:05:12.922Z,2.40
2022-12-08T19:07:42.372Z,2.40
2022-12-08T19:10:11.903Z,2.40
2022-12-08T19:12:42.157Z,2.40
2022-12-08T19:15:11.453Z,2.50
2022-12-08T19:17:39.911Z,2.50
2022-12-08T19:20:09.682Z,2.50
2022-12-08T19:22:38.492Z,2.60
2022-12-08T19:25:07.345Z,2.60
2022-12-08T19:27:35.776Z,2.60
2022-12-08T19:30:07.372Z,2.70
2022-12-08T19:32:36.005Z,2.70
2022-12-08T19:35:07.261Z,2.70
2022-12-08T19:37:35.943Z,2.70
2022-12-08T19:40:23.181Z,2.70
2022-12-08T19:43:09.557Z,2.70
2022-12-08T19:45:39.599Z,2.80
2022-12-08T19:48:08.476Z,2.70
2022-12-08T19:50:40.427Z,2.80
2022-12-08T19:53:11.198Z,2.80
2022-12-08T19:55:40.570Z,2.80
2022-12-08T19:58:10.375Z,2.80
2022-12-08T20:00:41.083Z,2.80
2022-12-08T20:03:10.393Z,2.80
2022-12-08T20:05:41.814Z,2.90
2022-12-08T20:08:10.830Z,2.90
2022-12-08T20:10:43.065Z,2.90
2022-12-08T20:13:29.778Z,3.00
2022-12-08T20:15:59.667Z,3.00
2022-12-08T20:18:29.481Z,3.00
2022-12-08T20:20:57.941Z,3.00
2022-12-08T20:23:26.333Z,3.00
2022-12-08T20:25:55.244Z,3.10
2022-12-08T20:28:23.733Z,3.10
2022-12-08T20:30:52.416Z,3.10
2022-12-08T20:33:22.260Z,3.10
2022-12-08T20:35:59.532Z,3.10
2022-12-08T20:38:28.183Z,3.10
2022-12-08T20:40:57.868Z,3.10
2022-12-08T20:43:26.907Z,3.10
2022-12-08T20:45:55.570Z,3.20
2022-12-08T20:48:25.934Z,3.20
2022-12-08T20:50:54.802Z,3.10
2022-12-08T20:53:23.450Z,3.10
2022-12-08T20:55:52.196Z,3.20
2022-12-08T20:58:20.865Z,3.20
2022-12-08T21:00:49.536Z,3.20
2022-12-08T21:03:18.645Z,3.10
2022-12-08T21:05:52.924Z,3.20
2022-12-08T21:08:25.032Z,3.10
2022-12-08T21:10:57.311Z,3.10
2022-12-08T21:13:25.884Z,3.10
2022-12-08T21:15:54.674Z,3.10
2022-12-08T21:18:24.551Z,3.20
2022-12-08T21:21:04.921Z,3.20
2022-12-08T21:23:34.492Z,3.20
2022-12-08T21:26:03.502Z,3.20
2022-12-08T21:28:32.172Z,3.30
2022-12-08T21:31:00.738Z,3.30
2022-12-08T21:33:29.351Z,3.30
2022-12-08T21:36:05.005Z,3.30
2022-12-08T21:38:33.598Z,3.30
2022-12-08T21:41:06.322Z,3.30
2022-12-08T21:43:35.420Z,3.30
2022-12-08T21:46:04.388Z,3.30
2022-12-08T21:48:33.380Z,3.30
2022-12-08T21:51:06.491Z,3.30
2022-12-08T21:53:35.146Z,3.30
2022-12-08T21:56:08.401Z,3.30
2022-12-08T21:58:36.988Z,3.50
2022-12-08T22:01:08.869Z,3.30
2022-12-08T22:03:38.132Z,3.40
2022-12-08T22:06:09.526Z,3.30
2022-12-08T22:08:38.398Z,3.40
2022-12-08T22:11:08.093Z,3.40
2022-12-08T22:13:37.355Z,3.40
2022-12-08T22:16:09.008Z,3.40
2022-12-08T22:18:38.153Z,3.40
2022-12-08T22:21:11.649Z,3.40
2022-12-08T22:23:40.646Z,3.30
2022-12-08T22:26:10.287Z,3.40
2022-12-08T22:28:40.687Z,3.30
2022-12-08T22:31:10.601Z,3.30
2022-12-08T22:33:39.508Z,3.20
2022-12-08T22:36:13.988Z,3.20
2022-12-08T22:38:42.428Z,3.10
2022-12-08T22:41:11.132Z,3.10
2022-12-08T22:43:40.078Z,3.00
2022-12-08T22:46:12.153Z,3.00
2022-12-08T22:48:41.155Z,2.90
2022-12-08T22:51:11.569Z,2.80
2022-12-08T22:53:40.178Z,2.80
2022-12-08T22:56:10.694Z,2.80
2022-12-08T22:58:40.920Z,2.80
2022-12-08T23:01:09.951Z,2.80
2022-12-08T23:03:38.529Z,2.80
2022-12-08T23:06:14.877Z,2.80
2022-12-08T23:08:43.505Z,2.80
2022-12-08T23:11:12.186Z,2.90
2022-12-08T23:13:41.054Z,2.90
2022-12-08T23:16:11.862Z,2.90
2022-12-08T23:18:43.551Z,3.00
2022-12-08T23:21:16.257Z,3.00
2022-12-08T23:23:44.807Z,3.00
2022-12-08T23:26:19.942Z,3.00
2022-12-08T23:28:48.665Z,3.00
2022-12-08T23:31:17.606Z,3.00
2022-12-08T23:33:47.091Z,3.00
2022-12-08T23:36:20.896Z,3.10
2022-12-08T23:38:49.757Z,3.10
2022-12-08T23:41:18.433Z,3.20
2022-12-08T23:43:48.423Z,3.20
2022-12-08T23:46:19.159Z,3.20
2022-12-08T23:48:48.034Z,3.20
2022-12-08T23:51:18.492Z,3.30
2022-12-08T23:53:47.418Z,3.20
2022-12-08T23:56:17.381Z,3.30
2022-12-08T23:58:46.497Z,3.30
